sensor_id;sensor_type;location;lat;lon;timestamp;pressure;altitude;pressure_sealevel;temperature;humidity
36932;BME280;22847;42.654;23.370;2023-01-08T00:00:46;95191.53;;;7.17;55.41
36932;BME280;22847;42.654;23.370;2023-01-08T00:03:11;95128.25;;;6.72;55.66
36932;BME280;22847;42.654;23.370;2023-01-08T00:05:37;95182.63;;;6.85;55.83
36932;BME280;22847;42.654;23.370;2023-01-08T00:08:03;94888.09;;;5.32;55.60
36932;BME280;22847;42.654;23.370;2023-01-08T00:10:29;95168.75;;;6.86;56.36
36932;BME280;22847;42.654;23.370;2023-01-08T00:12:55;95176.97;;;7.04;56.40
36932;BME280;22847;42.654;23.370;2023-01-08T00:15:20;95154.13;;;6.85;56.97
36932;BME280;22847;42.654;23.370;2023-01-08T00:17:46;95155.56;;;6.89;56.33
36932;BME280;22847;42.654;23.370;2023-01-08T00:20:12;95181.53;;;7.00;56.30
36932;BME280;22847;42.654;23.370;2023-01-08T00:22:37;95201.78;;;6.95;56.29
36932;BME280;22847;42.654;23.370;2023-01-08T00:25:03;95183.09;;;6.79;55.92
36932;BME280;22847;42.654;23.370;2023-01-08T00:27:29;95148.94;;;6.61;56.15
36932;BME280;22847;42.654;23.370;2023-01-08T00:29:54;95137.84;;;6.59;56.40
36932;BME280;22847;42.654;23.370;2023-01-08T00:32:19;95173.66;;;6.78;56.27
36932;BME280;22847;42.654;23.370;2023-01-08T00:34:45;95211.91;;;6.75;56.56
36932;BME280;22847;42.654;23.370;2023-01-08T00:37:10;95171.75;;;6.56;56.43
36932;BME280;22847;42.654;23.370;2023-01-08T00:42:20;95212.34;;;6.68;56.48
36932;BME280;22847;42.654;23.370;2023-01-08T00:44:45;95182.16;;;6.44;56.66
36932;BME280;22847;42.654;23.370;2023-01-08T00:47:11;95173.19;;;6.60;56.79
36932;BME280;22847;42.654;23.370;2023-01-08T00:49:37;95179.38;;;6.34;56.73
36932;BME280;22847;42.654;23.370;2023-01-08T00:52:02;94964.75;;;5.20;57.00
36932;BME280;22847;42.654;23.370;2023-01-08T00:54:28;94910.63;;;4.93;57.22
36932;BME280;22847;42.654;23.370;2023-01-08T00:56:54;95145.25;;;6.40;57.20
36932;BME280;22847;42.654;23.370;2023-01-08T00:59:20;95187.13;;;6.47;58.32
36932;BME280;22847;42.654;23.370;2023-01-08T01:01:45;95134.34;;;6.24;57.97
36932;BME280;22847;42.654;23.370;2023-01-08T01:04:11;95185.94;;;6.63;58.06
36932;BME280;22847;42.654;23.370;2023-01-08T01:06:36;95160.69;;;6.42;57.74
36932;BME280;22847;42.654;23.370;2023-01-08T01:09:02;95213.88;;;6.71;57.75
36932;BME280;22847;42.654;23.370;2023-01-08T01:11:27;95180.47;;;6.55;57.81
36932;BME280;22847;42.654;23.370;2023-01-08T01:13:54;95172.13;;;6.63;57.58
36932;BME280;22847;42.654;23.370;2023-01-08T01:16:20;95127.34;;;6.37;57.70
36932;BME280;22847;42.654;23.370;2023-01-08T01:18:46;95181.84;;;6.72;57.94
36932;BME280;22847;42.654;23.370;2023-01-08T01:21:26;94992.44;;;5.56;57.87
36932;BME280;22847;42.654;23.370;2023-01-08T01:23:53;95173.56;;;6.31;58.20
36932;BME280;22847;42.654;23.370;2023-01-08T01:26:20;95021.63;;;5.58;58.82
36932;BME280;22847;42.654;23.370;2023-01-08T01:28:48;95124.84;;;6.12;59.54
36932;BME280;22847;42.654;23.370;2023-01-08T01:31:14;95069.59;;;5.88;58.58
36932;BME280;22847;42.654;23.370;2023-01-08T01:33:40;95128.56;;;6.20;58.52
36932;BME280;22847;42.654;23.370;2023-01-08T01:36:08;95163.19;;;6.31;58.98
36932;BME280;22847;42.654;23.370;2023-01-08T01:38:34;95101.97;;;6.06;58.95
36932;BME280;22847;42.654;23.370;2023-01-08T01:40:59;95185.19;;;6.12;59.91
36932;BME280;22847;42.654;23.370;2023-01-08T01:43:36;95132.72;;;5.85;60.04
36932;BME280;22847;42.654;23.370;2023-01-08T01:46:03;95078.72;;;5.30;60.47
36932;BME280;22847;42.654;23.370;2023-01-08T01:48:30;95075.63;;;5.63;59.42
36932;BME280;22847;42.654;23.370;2023-01-08T01:50:57;94886.66;;;4.66;58.30
36932;BME280;22847;42.654;23.370;2023-01-08T01:53:23;95176.16;;;6.43;58.21
36932;BME280;22847;42.654;23.370;2023-01-08T01:55:50;94940.69;;;5.07;58.25
36932;BME280;22847;42.654;23.370;2023-01-08T01:58:21;95151.56;;;6.00;58.28
36932;BME280;22847;42.654;23.370;2023-01-08T02:00:48;94984.72;;;5.31;58.27
36932;BME280;22847;42.654;23.370;2023-01-08T02:03:15;95158.22;;;6.40;57.40
36932;BME280;22847;42.654;23.370;2023-01-08T02:12:08;95164.47;;;6.25;58.62
36932;BME280;22847;42.654;23.370;2023-01-08T02:17:11;95183.63;;;6.22;58.56
36932;BME280;22847;42.654;23.370;2023-01-08T02:19:58;94966.22;;;5.12;58.60
36932;BME280;22847;42.654;23.370;2023-01-08T02:25:10;95178.66;;;6.19;59.43
36932;BME280;22847;42.654;23.370;2023-01-08T02:27:44;95082.91;;;5.81;58.92
36932;BME280;22847;42.654;23.370;2023-01-08T02:30:10;95125.13;;;6.20;58.57
36932;BME280;22847;42.654;23.370;2023-01-08T02:32:38;95107.47;;;5.76;59.07
36932;BME280;22847;42.654;23.370;2023-01-08T02:35:05;94693.00;;;3.29;58.95
36932;BME280;22847;42.654;23.370;2023-01-08T02:37:31;95015.31;;;5.37;58.89
36932;BME280;22847;42.654;23.370;2023-01-08T02:42:50;94898.75;;;4.78;57.96
36932;BME280;22847;42.654;23.370;2023-01-08T02:45:43;95126.06;;;6.19;58.59
36932;BME280;22847;42.654;23.370;2023-01-08T02:48:13;95169.44;;;6.28;58.27
36932;BME280;22847;42.654;23.370;2023-01-08T02:50:43;95146.66;;;6.20;57.34
36932;BME280;22847;42.654;23.370;2023-01-08T02:53:19;95089.03;;;5.80;58.03
36932;BME280;22847;42.654;23.370;2023-01-08T02:55:57;95073.41;;;5.69;58.35
36932;BME280;22847;42.654;23.370;2023-01-08T02:58:25;95121.22;;;6.02;58.26
36932;BME280;22847;42.654;23.370;2023-01-08T03:00:52;95138.31;;;5.79;58.22
36932;BME280;22847;42.654;23.370;2023-01-08T03:03:21;94894.13;;;4.58;57.65
36932;BME280;22847;42.654;23.370;2023-01-08T03:05:53;95140.69;;;6.07;57.82
36932;BME280;22847;42.654;23.370;2023-01-08T03:08:20;95176.41;;;6.02;58.15
36932;BME280;22847;42.654;23.370;2023-01-08T03:10:50;95113.25;;;5.79;58.27
36932;BME280;22847;42.654;23.370;2023-01-08T03:13:26;95142.22;;;6.10;58.31
36932;BME280;22847;42.654;23.370;2023-01-08T03:15:58;94997.53;;;5.20;58.71
36932;BME280;22847;42.654;23.370;2023-01-08T03:18:30;95145.44;;;6.01;58.78
36932;BME280;22847;42.654;23.370;2023-01-08T03:21:00;95029.38;;;4.95;59.49
36932;BME280;22847;42.654;23.370;2023-01-08T03:23:27;95116.56;;;5.69;59.35
36932;BME280;22847;42.654;23.370;2023-01-08T03:25:53;94966.03;;;4.77;59.83
36932;BME280;22847;42.654;23.370;2023-01-08T03:28:25;95139.25;;;6.03;59.04
36932;BME280;22847;42.654;23.370;2023-01-08T03:30:55;95116.34;;;5.72;58.66
36932;BME280;22847;42.654;23.370;2023-01-08T03:33:23;95184.06;;;6.04;58.52
36932;BME280;22847;42.654;23.370;2023-01-08T03:35:52;94758.75;;;3.74;59.33
36932;BME280;22847;42.654;23.370;2023-01-08T03:38:28;95180.66;;;6.03;58.45
36932;BME280;22847;42.654;23.370;2023-01-08T03:40:58;95165.31;;;6.00;57.67
36932;BME280;22847;42.654;23.370;2023-01-08T03:43:26;95098.66;;;5.66;58.12
36932;BME280;22847;42.654;23.370;2023-01-08T03:45:57;95130.66;;;5.90;58.32
36932;BME280;22847;42.654;23.370;2023-01-08T03:48:24;95070.22;;;5.40;58.52
36932;BME280;22847;42.654;23.370;2023-01-08T03:50:50;95124.34;;;5.56;58.89
36932;BME280;22847;42.654;23.370;2023-01-08T03:53:16;95126.09;;;5.56;59.85
36932;BME280;22847;42.654;23.370;2023-01-08T03:55:41;95117.81;;;5.63;59.59
36932;BME280;22847;42.654;23.370;2023-01-08T03:58:07;95083.16;;;5.40;59.82
36932;BME280;22847;42.654;23.370;2023-01-08T04:00:32;95018.75;;;5.00;59.16
36932;BME280;22847;42.654;23.370;2023-01-08T04:02:58;94788.31;;;3.55;58.86
36932;BME280;22847;42.654;23.370;2023-01-08T04:05:23;94909.56;;;4.20;58.92
36932;BME280;22847;42.654;23.370;2023-01-08T04:07:49;95142.22;;;5.59;58.90
36932;BME280;22847;42.654;23.370;2023-01-08T04:10:14;95087.09;;;5.21;58.68
36932;BME280;22847;42.654;23.370;2023-01-08T04:12:42;95102.91;;;5.16;59.00
36932;BME280;22847;42.654;23.370;2023-01-08T04:15:08;95069.91;;;4.94;59.00
36932;BME280;22847;42.654;23.370;2023-01-08T04:17:33;95020.50;;;4.47;59.13
36932;BME280;22847;42.654;23.370;2023-01-08T04:19:59;95094.66;;;4.84;59.15
36932;BME280;22847;42.654;23.370;2023-01-08T04:22:24;95110.81;;;5.01;58.83
36932;BME280;22847;42.654;23.370;2023-01-08T04:24:49;95150.56;;;5.25;59.20
36932;BME280;22847;42.654;23.370;2023-01-08T04:27:15;95147.91;;;5.26;59.54
36932;BME280;22847;42.654;23.370;2023-01-08T04:29:40;95135.03;;;5.12;59.47
36932;BME280;22847;42.654;23.370;2023-01-08T04:32:06;94923.06;;;3.84;60.29
36932;BME280;22847;42.654;23.370;2023-01-08T04:34:31;94878.25;;;3.60;59.73
36932;BME280;22847;42.654;23.370;2023-01-08T04:36:57;95147.78;;;5.28;60.18
36932;BME280;22847;42.654;23.370;2023-01-08T04:39:23;94943.69;;;4.11;60.50
36932;BME280;22847;42.654;23.370;2023-01-08T04:41:48;95087.78;;;4.98;60.19
36932;BME280;22847;42.654;23.370;2023-01-08T04:44:14;95186.16;;;5.34;60.33
36932;BME280;22847;42.654;23.370;2023-01-08T04:46:39;95150.38;;;5.28;60.77
36932;BME280;22847;42.654;23.370;2023-01-08T04:49:04;95133.47;;;5.10;60.84
36932;BME280;22847;42.654;23.370;2023-01-08T04:51:30;95136.72;;;5.13;60.63
36932;BME280;22847;42.654;23.370;2023-01-08T04:53:56;95147.81;;;4.62;61.44
36932;BME280;22847;42.654;23.370;2023-01-08T04:56:21;95034.34;;;4.19;61.72
36932;BME280;22847;42.654;23.370;2023-01-08T04:58:47;94900.34;;;3.64;60.79
36932;BME280;22847;42.654;23.370;2023-01-08T05:01:17;94909.47;;;3.55;61.04
36932;BME280;22847;42.654;23.370;2023-01-08T05:03:43;95126.50;;;4.85;60.82
36932;BME280;22847;42.654;23.370;2023-01-08T05:06:08;94884.03;;;3.37;61.18
36932;BME280;22847;42.654;23.370;2023-01-08T05:08:33;95147.25;;;4.83;61.69
36932;BME280;22847;42.654;23.370;2023-01-08T05:10:59;95157.28;;;4.88;61.22
36932;BME280;22847;42.654;23.370;2023-01-08T05:13:25;95203.13;;;4.99;61.36
36932;BME280;22847;42.654;23.370;2023-01-08T05:15:50;95173.59;;;4.76;60.19
36932;BME280;22847;42.654;23.370;2023-01-08T05:18:16;95096.78;;;4.65;59.91
36932;BME280;22847;42.654;23.370;2023-01-08T05:20:41;95122.69;;;4.90;59.54
36932;BME280;22847;42.654;23.370;2023-01-08T05:23:07;95106.31;;;4.77;59.21
36932;BME280;22847;42.654;23.370;2023-01-08T05:25:33;94904.41;;;3.54;59.56
36932;BME280;22847;42.654;23.370;2023-01-08T05:27:59;95080.78;;;4.46;59.68
36932;BME280;22847;42.654;23.370;2023-01-08T05:30:24;95185.16;;;5.10;59.84
36932;BME280;22847;42.654;23.370;2023-01-08T05:32:49;95069.00;;;4.42;59.79
36932;BME280;22847;42.654;23.370;2023-01-08T05:35:15;95100.81;;;4.69;59.23
36932;BME280;22847;42.654;23.370;2023-01-08T05:37:40;95072.75;;;4.50;60.35
36932;BME280;22847;42.654;23.370;2023-01-08T05:40:06;95152.41;;;5.10;60.31
36932;BME280;22847;42.654;23.370;2023-01-08T05:42:35;95160.88;;;5.00;59.97
36932;BME280;22847;42.654;23.370;2023-01-08T05:45:04;95150.59;;;4.85;60.19
36932;BME280;22847;42.654;23.370;2023-01-08T05:47:31;95151.88;;;5.05;60.45
36932;BME280;22847;42.654;23.370;2023-01-08T05:49:57;94872.38;;;3.17;60.73
36932;BME280;22847;42.654;23.370;2023-01-08T05:52:23;95171.25;;;4.85;61.04
36932;BME280;22847;42.654;23.370;2023-01-08T05:54:49;94950.94;;;3.65;61.21
36932;BME280;22847;42.654;23.370;2023-01-08T05:57:14;95151.47;;;4.72;61.80
36932;BME280;22847;42.654;23.370;2023-01-08T05:59:40;95155.25;;;4.66;61.72
36932;BME280;22847;42.654;23.370;2023-01-08T06:02:07;95084.72;;;4.39;61.61
36932;BME280;22847;42.654;23.370;2023-01-08T06:04:32;95098.44;;;4.13;62.04
36932;BME280;22847;42.654;23.370;2023-01-08T06:06:58;95088.31;;;4.10;62.28
36932;BME280;22847;42.654;23.370;2023-01-08T06:09:24;95177.94;;;4.20;63.05
36932;BME280;22847;42.654;23.370;2023-01-08T06:11:49;95170.09;;;4.36;63.70
36932;BME280;22847;42.654;23.370;2023-01-08T06:14:15;95157.53;;;4.44;62.32
36932;BME280;22847;42.654;23.370;2023-01-08T06:16:44;95157.09;;;4.64;62.40
36932;BME280;22847;42.654;23.370;2023-01-08T06:19:10;95179.41;;;4.92;62.14
36932;BME280;22847;42.654;23.370;2023-01-08T06:21:36;95182.25;;;4.75;61.50
36932;BME280;22847;42.654;23.370;2023-01-08T06:24:02;95144.38;;;4.61;61.63
36932;BME280;22847;42.654;23.370;2023-01-08T06:26:28;94957.38;;;3.45;61.45
36932;BME280;22847;42.654;23.370;2023-01-08T06:28:53;95122.75;;;5.16;60.11
36932;BME280;22847;42.654;23.370;2023-01-08T06:31:18;95143.69;;;7.22;55.40
36932;BME280;22847;42.654;23.370;2023-01-08T06:33:44;95178.66;;;9.50;49.83
36932;BME280;22847;42.654;23.370;2023-01-08T06:36:09;95187.19;;;10.74;45.37
36932;BME280;22847;42.654;23.370;2023-01-08T06:38:35;95138.91;;;11.76;42.28
36932;BME280;22847;42.654;23.370;2023-01-08T06:41:05;94990.69;;;12.86;37.75
36932;BME280;22847;42.654;23.370;2023-01-08T06:43:32;95138.22;;;15.27;34.93
36932;BME280;22847;42.654;23.370;2023-01-08T06:45:58;95146.59;;;16.60;32.48
36932;BME280;22847;42.654;23.370;2023-01-08T06:48:24;95154.00;;;17.65;31.04
36932;BME280;22847;42.654;23.370;2023-01-08T06:50:50;95039.41;;;17.67;29.58
36932;BME280;22847;42.654;23.370;2023-01-08T06:53:16;95164.34;;;18.93;28.58
36932;BME280;22847;42.654;23.370;2023-01-08T06:55:41;94996.72;;;19.24;27.22
36932;BME280;22847;42.654;23.370;2023-01-08T06:58:08;95151.66;;;20.73;25.88
36932;BME280;22847;42.654;23.370;2023-01-08T07:00:34;95113.19;;;21.31;25.31
36932;BME280;22847;42.654;23.370;2023-01-08T07:02:59;95133.78;;;22.30;23.89
36932;BME280;22847;42.654;23.370;2023-01-08T07:05:25;94993.03;;;21.97;23.34
36932;BME280;22847;42.654;23.370;2023-01-08T07:07:50;95137.47;;;23.32;22.76
36932;BME280;22847;42.654;23.370;2023-01-08T07:10:16;95104.25;;;23.48;22.07
36932;BME280;22847;42.654;23.370;2023-01-08T07:12:41;95118.75;;;23.59;21.97
36932;BME280;22847;42.654;23.370;2023-01-08T07:15:07;95167.44;;;23.66;21.73
36932;BME280;22847;42.654;23.370;2023-01-08T07:17:33;95137.97;;;23.03;22.67
36932;BME280;22847;42.654;23.370;2023-01-08T07:19:58;95144.09;;;23.68;21.91
36932;BME280;22847;42.654;23.370;2023-01-08T07:22:24;95108.53;;;24.12;21.22
36932;BME280;22847;42.654;23.370;2023-01-08T07:24:51;95163.94;;;24.59;20.90
36932;BME280;22847;42.654;23.370;2023-01-08T07:27:16;95170.41;;;25.13;20.96
36932;BME280;22847;42.654;23.370;2023-01-08T07:29:42;95115.66;;;25.40;20.45
36932;BME280;22847;42.654;23.370;2023-01-08T07:32:07;95154.13;;;25.99;19.63
36932;BME280;22847;42.654;23.370;2023-01-08T07:34:33;95144.41;;;24.83;20.43
36932;BME280;22847;42.654;23.370;2023-01-08T07:36:59;95137.53;;;25.67;20.15
36932;BME280;22847;42.654;23.370;2023-01-08T07:39:25;94982.94;;;24.99;19.69
36932;BME280;22847;42.654;23.370;2023-01-08T07:41:50;95146.38;;;26.62;19.40
36932;BME280;22847;42.654;23.370;2023-01-08T07:44:16;95174.06;;;26.68;18.92
36932;BME280;22847;42.654;23.370;2023-01-08T07:46:41;95160.31;;;26.29;19.25
36932;BME280;22847;42.654;23.370;2023-01-08T07:49:06;95158.66;;;25.98;19.81
36932;BME280;22847;42.654;23.370;2023-01-08T07:51:32;95146.13;;;25.69;19.67
36932;BME280;22847;42.654;23.370;2023-01-08T07:53:58;95013.53;;;23.11;21.13
36932;BME280;22847;42.654;23.370;2023-01-08T07:56:23;95170.00;;;23.41;21.82
36932;BME280;22847;42.654;23.370;2023-01-08T07:58:49;95177.91;;;22.96;22.20
36932;BME280;22847;42.654;23.370;2023-01-08T08:01:15;94995.28;;;22.00;22.62
36932;BME280;22847;42.654;23.370;2023-01-08T08:03:41;95042.06;;;22.14;23.01
36932;BME280;22847;42.654;23.370;2023-01-08T08:06:07;95171.78;;;22.56;23.23
36932;BME280;22847;42.654;23.370;2023-01-08T08:08:32;95164.44;;;22.52;23.49
36932;BME280;22847;42.654;23.370;2023-01-08T08:10:58;95163.03;;;22.10;24.28
36932;BME280;22847;42.654;23.370;2023-01-08T08:13:23;95169.50;;;21.27;25.16
36932;BME280;22847;42.654;23.370;2023-01-08T08:15:49;95167.53;;;20.18;26.58
36932;BME280;22847;42.654;23.370;2023-01-08T08:18:14;95158.91;;;19.31;28.12
36932;BME280;22847;42.654;23.370;2023-01-08T08:20:40;95122.31;;;18.40;29.37
36932;BME280;22847;42.654;23.370;2023-01-08T08:23:07;95151.47;;;17.71;30.27
36932;BME280;22847;42.654;23.370;2023-01-08T08:25:34;95170.50;;;17.59;31.22
36932;BME280;22847;42.654;23.370;2023-01-08T08:28:00;95125.31;;;17.08;31.82
36932;BME280;22847;42.654;23.370;2023-01-08T08:30:29;95132.25;;;16.62;32.47
36932;BME280;22847;42.654;23.370;2023-01-08T08:32:58;95159.97;;;16.10;33.48
36932;BME280;22847;42.654;23.370;2023-01-08T08:35:25;95102.47;;;15.58;34.17
36932;BME280;22847;42.654;23.370;2023-01-08T08:37:50;95002.41;;;14.87;34.48
36932;BME280;22847;42.654;23.370;2023-01-08T08:40:16;94973.38;;;14.72;34.88
36932;BME280;22847;42.654;23.370;2023-01-08T08:42:41;95035.25;;;15.07;34.06
36932;BME280;22847;42.654;23.370;2023-01-08T08:45:07;95043.31;;;15.30;34.60
36932;BME280;22847;42.654;23.370;2023-01-08T08:47:33;95043.09;;;14.83;35.22
36932;BME280;22847;42.654;23.370;2023-01-08T08:49:58;95162.06;;;15.41;36.56
36932;BME280;22847;42.654;23.370;2023-01-08T08:52:23;95178.16;;;15.46;36.08
36932;BME280;22847;42.654;23.370;2023-01-08T08:54:49;94980.03;;;14.08;36.53
36932;BME280;22847;42.654;23.370;2023-01-08T08:57:14;94961.50;;;14.10;36.61
36932;BME280;22847;42.654;23.370;2023-01-08T08:59:39;95059.22;;;14.46;36.53
36932;BME280;22847;42.654;23.370;2023-01-08T09:02:06;95173.63;;;14.64;37.37
36932;BME280;22847;42.654;23.370;2023-01-08T09:04:32;95183.38;;;14.72;37.52
36932;BME280;22847;42.654;23.370;2023-01-08T09:06:58;95033.56;;;13.64;38.60
36932;BME280;22847;42.654;23.370;2023-01-08T09:09:23;95036.94;;;13.82;38.51
36932;BME280;22847;42.654;23.370;2023-01-08T09:11:49;95072.81;;;13.81;38.31
36932;BME280;22847;42.654;23.370;2023-01-08T09:14:15;95095.72;;;13.79;38.92
36932;BME280;22847;42.654;23.370;2023-01-08T09:16:40;95054.91;;;13.51;40.14
36932;BME280;22847;42.654;23.370;2023-01-08T09:19:05;95202.78;;;14.53;40.04
36932;BME280;22847;42.654;23.370;2023-01-08T09:21:31;95104.81;;;14.45;38.38
36932;BME280;22847;42.654;23.370;2023-01-08T09:23:57;95125.06;;;14.68;37.97
36932;BME280;22847;42.654;23.370;2023-01-08T09:26:22;95187.28;;;15.18;38.11
36932;BME280;22847;42.654;23.370;2023-01-08T09:28:48;95126.16;;;14.92;38.11
36932;BME280;22847;42.654;23.370;2023-01-08T09:31:13;95095.66;;;14.99;37.90
36932;BME280;22847;42.654;23.370;2023-01-08T09:33:38;95170.66;;;15.51;36.76
36932;BME280;22847;42.654;23.370;2023-01-08T09:36:07;95106.88;;;15.49;36.58
36932;BME280;22847;42.654;23.370;2023-01-08T09:38:33;95136.13;;;16.03;36.34
36932;BME280;22847;42.654;23.370;2023-01-08T09:41:03;95139.44;;;15.81;36.22
36932;BME280;22847;42.654;23.370;2023-01-08T09:43:32;94957.91;;;14.61;36.84
36932;BME280;22847;42.654;23.370;2023-01-08T09:46:01;95122.50;;;15.51;36.80
36932;BME280;22847;42.654;23.370;2023-01-08T09:48:30;95105.13;;;15.66;36.74
36932;BME280;22847;42.654;23.370;2023-01-08T09:50:57;95131.88;;;15.86;36.07
36932;BME280;22847;42.654;23.370;2023-01-08T09:53:23;95114.44;;;16.01;36.59
36932;BME280;22847;42.654;23.370;2023-01-08T09:56:02;94868.34;;;14.48;37.51
36932;BME280;22847;42.654;23.370;2023-01-08T10:01:01;94921.81;;;15.11;35.64
36932;BME280;22847;42.654;23.370;2023-01-08T10:03:36;95043.09;;;16.04;35.70
36932;BME280;22847;42.654;23.370;2023-01-08T10:06:14;95101.16;;;16.58;35.71
36932;BME280;22847;42.654;23.370;2023-01-08T10:08:40;95079.50;;;16.31;35.79
36932;BME280;22847;42.654;23.370;2023-01-08T10:11:06;95040.50;;;15.88;36.12
36932;BME280;22847;42.654;23.370;2023-01-08T10:13:34;94931.84;;;15.08;36.90
36932;BME280;22847;42.654;23.370;2023-01-08T10:16:00;95081.13;;;15.53;36.98
36932;BME280;22847;42.654;23.370;2023-01-08T10:18:29;95080.09;;;15.38;38.23
36932;BME280;22847;42.654;23.370;2023-01-08T10:20:57;95071.41;;;15.29;38.16
36932;BME280;22847;42.654;23.370;2023-01-08T10:23:22;95010.13;;;14.96;38.42
36932;BME280;22847;42.654;23.370;2023-01-08T10:26:00;95038.56;;;15.17;38.46
36932;BME280;22847;42.654;23.370;2023-01-08T10:28:30;94901.69;;;14.05;39.01
36932;BME280;22847;42.654;23.370;2023-01-08T10:31:05;95048.38;;;14.99;39.22
36932;BME280;22847;42.654;23.370;2023-01-08T10:33:35;95060.22;;;15.11;38.31
36932;BME280;22847;42.654;23.370;2023-01-08T10:36:06;95009.56;;;14.60;38.92
36932;BME280;22847;42.654;23.370;2023-01-08T10:38:35;95069.00;;;14.78;39.35
36932;BME280;22847;42.654;23.370;2023-01-08T10:41:04;94821.25;;;13.56;39.63
36932;BME280;22847;42.654;23.370;2023-01-08T10:43:34;95006.38;;;15.07;39.64
36932;BME280;22847;42.654;23.370;2023-01-08T10:46:05;95047.72;;;15.13;38.75
36932;BME280;22847;42.654;23.370;2023-01-08T10:48:47;94974.63;;;14.60;39.07
36932;BME280;22847;42.654;23.370;2023-01-08T10:51:19;95001.38;;;14.63;39.22
36932;BME280;22847;42.654;23.370;2023-01-08T10:53:45;95042.41;;;14.72;39.51
36932;BME280;22847;42.654;23.370;2023-01-08T10:56:38;94830.66;;;13.82;39.39
36932;BME280;22847;42.654;23.370;2023-01-08T10:59:04;94988.63;;;15.09;38.88
36932;BME280;22847;42.654;23.370;2023-01-08T11:01:30;94989.91;;;14.72;38.63
36932;BME280;22847;42.654;23.370;2023-01-08T11:03:58;95027.88;;;14.94;39.36
36932;BME280;22847;42.654;23.370;2023-01-08T11:06:30;95059.19;;;14.96;39.17
36932;BME280;22847;42.654;23.370;2023-01-08T11:09:01;94983.22;;;15.02;39.43
36932;BME280;22847;42.654;23.370;2023-01-08T11:11:35;95020.81;;;15.27;38.60
36932;BME280;22847;42.654;23.370;2023-01-08T11:14:26;95012.09;;;15.27;38.66
36932;BME280;22847;42.654;23.370;2023-01-08T11:16:54;95030.00;;;15.23;38.26
36932;BME280;22847;42.654;23.370;2023-01-08T11:19:25;94974.03;;;14.98;38.11
36932;BME280;22847;42.654;23.370;2023-01-08T11:24:33;95009.34;;;15.04;38.76
36932;BME280;22847;42.654;23.370;2023-01-08T11:29:40;94798.56;;;13.72;39.75
36932;BME280;22847;42.654;23.370;2023-01-08T11:34:49;95030.00;;;15.23;39.93
36932;BME280;22847;42.654;23.370;2023-01-08T11:39:46;94848.69;;;14.44;38.32
36932;BME280;22847;42.654;23.370;2023-01-08T11:42:34;94991.41;;;15.32;38.27
36932;BME280;22847;42.654;23.370;2023-01-08T11:45:16;95014.59;;;15.44;39.00
36932;BME280;22847;42.654;23.370;2023-01-08T11:50:34;94904.63;;;14.85;38.15
36932;BME280;22847;42.654;23.370;2023-01-08T11:53:22;94982.91;;;15.22;38.96
36932;BME280;22847;42.654;23.370;2023-01-08T11:58:47;94974.34;;;15.19;38.63
36932;BME280;22847;42.654;23.370;2023-01-08T12:07:18;94967.94;;;15.38;38.96
36932;BME280;22847;42.654;23.370;2023-01-08T12:10:12;94990.25;;;15.18;38.70
36932;BME280;22847;42.654;23.370;2023-01-08T12:21:10;94952.97;;;15.47;37.98
36932;BME280;22847;42.654;23.370;2023-01-08T12:26:18;94912.81;;;15.06;38.04
36932;BME280;22847;42.654;23.370;2023-01-08T12:36:51;94965.31;;;15.22;39.00
36932;BME280;22847;42.654;23.370;2023-01-08T12:39:25;94952.69;;;14.93;39.01
36932;BME280;22847;42.654;23.370;2023-01-08T12:41:57;94963.38;;;15.08;38.63
36932;BME280;22847;42.654;23.370;2023-01-08T12:44:27;94926.41;;;14.77;38.62
36932;BME280;22847;42.654;23.370;2023-01-08T12:46:57;94866.50;;;14.32;38.90
36932;BME280;22847;42.654;23.370;2023-01-08T12:49:58;94888.38;;;14.57;39.02
36932;BME280;22847;42.654;23.370;2023-01-08T12:52:33;94728.59;;;13.65;39.12
36932;BME280;22847;42.654;23.370;2023-01-08T12:58:02;94921.34;;;14.92;38.87
36932;BME280;22847;42.654;23.370;2023-01-08T13:03:23;94906.59;;;14.99;39.11
36932;BME280;22847;42.654;23.370;2023-01-08T13:05:49;94890.16;;;14.97;38.61
36932;BME280;22847;42.654;23.370;2023-01-08T13:08:33;94910.50;;;15.03;38.37
36932;BME280;22847;42.654;23.370;2023-01-08T13:10:59;94906.88;;;15.20;38.43
36932;BME280;22847;42.654;23.370;2023-01-08T13:13:36;94901.00;;;15.02;38.59
36932;BME280;22847;42.654;23.370;2023-01-08T13:18:36;94889.50;;;15.03;38.41
36932;BME280;22847;42.654;23.370;2023-01-08T13:21:04;94871.47;;;14.84;38.33
36932;BME280;22847;42.654;23.370;2023-01-08T13:23:32;94908.53;;;15.05;39.11
36932;BME280;22847;42.654;23.370;2023-01-08T13:26:00;94758.28;;;14.06;38.95
36932;BME280;22847;42.654;23.370;2023-01-08T13:33:38;94905.59;;;14.92;38.54
36932;BME280;22847;42.654;23.370;2023-01-08T13:38:36;94847.69;;;14.53;38.75
36932;BME280;22847;42.654;23.370;2023-01-08T13:41:02;94900.19;;;14.85;38.70
36932;BME280;22847;42.654;23.370;2023-01-08T13:43:40;94745.84;;;14.00;38.83
36932;BME280;22847;42.654;23.370;2023-01-08T13:46:18;94909.84;;;15.01;38.80
36932;BME280;22847;42.654;23.370;2023-01-08T13:54:18;94745.69;;;13.93;39.57
36932;BME280;22847;42.654;23.370;2023-01-08T13:56:46;94876.72;;;14.67;39.86
36932;BME280;22847;42.654;23.370;2023-01-08T13:59:35;94838.66;;;14.47;40.09
36932;BME280;22847;42.654;23.370;2023-01-08T14:02:03;94903.78;;;14.84;39.58
36932;BME280;22847;42.654;23.370;2023-01-08T14:04:29;94900.81;;;14.95;41.57
36932;BME280;22847;42.654;23.370;2023-01-08T14:07:13;94861.16;;;14.58;40.69
36932;BME280;22847;42.654;23.370;2023-01-08T14:09:39;94921.03;;;14.70;40.10
36932;BME280;22847;42.654;23.370;2023-01-08T14:12:05;94847.22;;;14.49;41.38
36932;BME280;22847;42.654;23.370;2023-01-08T14:14:30;94645.47;;;13.01;40.85
36932;BME280;22847;42.654;23.370;2023-01-08T14:16:56;94884.44;;;14.45;41.75
36932;BME280;22847;42.654;23.370;2023-01-08T14:19:23;94850.59;;;14.09;40.09
36932;BME280;22847;42.654;23.370;2023-01-08T14:21:51;94871.72;;;14.08;40.44